createdAt,value
2018-09-28T09:45:13.703Z,60.08
2018-09-28T09:46:06.583Z,59.67
2018-09-28T09:47:06.581Z,60.58
2018-09-28T09:48:06.556Z,60.17
2018-09-28T09:49:06.554Z,59.55
2018-09-28T09:50:06.540Z,59.84
2018-09-28T09:51:06.653Z,59.77
2018-09-28T09:52:06.511Z,58.97
2018-09-28T09:53:06.502Z,59.34
2018-09-28T09:54:06.490Z,59.34
2018-09-28T09:55:06.495Z,59.14
2018-09-28T09:56:06.497Z,58.34
2018-09-28T09:57:06.459Z,58.14
2018-09-28T09:58:06.491Z,58.34
2018-09-28T09:59:06.439Z,58.34
2018-09-28T10:00:06.429Z,58.64
2018-09-28T10:01:06.444Z,58.61
2018-09-28T10:02:06.397Z,58.64
2018-09-28T10:03:06.389Z,59.24
2018-09-28T10:04:06.382Z,57.53
2018-09-28T10:05:06.443Z,58.23
2018-09-28T10:06:06.358Z,58.84
2018-09-28T10:07:06.384Z,58.64
2018-09-28T10:08:06.336Z,58.94
2018-09-28T10:09:06.326Z,59.64
2018-09-28T10:10:06.311Z,58.64
2018-09-28T10:11:06.300Z,58.84
2018-09-28T10:12:06.317Z,58.11
2018-09-28T10:13:06.276Z,58.11
2018-09-28T10:14:06.279Z,58.61
2018-09-28T10:15:06.256Z,54.99
2018-09-28T10:16:07.128Z,55.89
2018-09-28T10:17:06.269Z,56.80
2018-09-28T10:18:06.226Z,55.36
2018-09-28T10:19:06.278Z,54.46
2018-09-28T10:20:06.207Z,55.66
2018-09-28T10:21:06.190Z,55.06
2018-09-28T10:22:06.210Z,56.07
2018-09-28T10:23:06.167Z,55.96
2018-09-28T10:24:06.167Z,52.54
2018-09-28T10:25:06.142Z,53.55
2018-09-28T10:26:06.149Z,53.95
2018-09-28T10:27:06.290Z,54.66
2018-09-28T10:28:06.173Z,54.53
2018-09-28T10:29:06.103Z,54.13
2018-09-28T10:30:06.103Z,54.13
2018-09-28T10:31:06.077Z,52.31
2018-09-28T10:32:06.069Z,52.69
2018-09-28T10:33:06.088Z,51.51
2018-09-28T10:34:06.045Z,52.49
2018-09-28T10:35:06.035Z,53.63
2018-09-28T10:36:06.023Z,53.52
2018-09-28T10:37:06.011Z,53.32
2018-09-28T10:38:06.078Z,53.20
2018-09-28T10:39:06.003Z,54.00
2018-09-28T10:40:06.014Z,53.90
2018-09-28T10:41:05.977Z,53.20
2018-09-28T10:42:05.957Z,54.00
2018-09-28T10:43:05.972Z,54.10
2018-09-28T10:44:05.934Z,56.01
2018-09-28T10:45:05.932Z,53.00
2018-09-28T10:46:05.911Z,54.20
2018-09-28T10:47:05.900Z,54.10
2018-09-28T10:48:05.913Z,52.49
2018-09-28T10:49:05.879Z,54.03
2018-09-28T10:50:05.870Z,54.23
2018-09-28T10:51:13.019Z,54.53
2018-09-28T10:52:05.962Z,52.89
2018-09-28T10:53:05.926Z,54.60
2018-09-28T10:54:12.860Z,55.81
2018-09-28T10:55:12.862Z,54.50
2018-09-28T10:56:12.848Z,54.68
2018-09-28T10:57:12.997Z,53.97
2018-09-28T10:58:12.927Z,52.57
2018-09-28T10:59:12.825Z,54.08
2018-09-28T11:00:12.866Z,51.46
2018-09-28T11:01:12.820Z,52.67
2018-09-28T11:02:05.735Z,52.06
2018-09-28T11:03:05.722Z,51.66
2018-09-28T11:04:05.746Z,52.26
2018-09-28T11:05:05.734Z,49.65
2018-09-28T11:06:05.722Z,50.96
2018-09-28T11:07:05.677Z,51.46
2018-09-28T11:08:05.668Z,51.36
2018-09-28T11:09:05.656Z,51.46
2018-09-28T11:10:05.646Z,52.06
2018-09-28T11:11:05.634Z,50.86
2018-09-28T11:12:06.454Z,50.66
2018-09-28T11:13:05.640Z,50.76
2018-09-28T11:14:05.594Z,51.46
2018-09-28T11:15:05.620Z,51.66
2018-09-28T11:16:05.575Z,51.76
2018-09-28T11:17:05.584Z,51.46
2018-09-28T11:18:06.500Z,51.97
2018-09-28T11:19:05.570Z,52.44
2018-09-28T11:20:05.527Z,52.04
2018-09-28T11:21:05.541Z,51.94
2018-09-28T11:22:05.510Z,51.54
2018-09-28T11:23:05.506Z,51.64
2018-09-28T11:24:05.511Z,49.43
2018-09-28T11:25:05.479Z,50.23
2018-09-28T11:26:05.460Z,50.63
2018-09-28T11:27:05.450Z,51.64
2018-09-28T11:28:05.444Z,50.03
2018-09-28T11:29:05.450Z,51.54
2018-09-28T11:30:05.416Z,51.84
2018-09-28T11:31:05.411Z,51.14
2018-09-28T11:32:05.392Z,50.31
2018-09-28T11:33:05.405Z,50.41
2018-09-28T11:34:05.404Z,50.51
2018-09-28T11:35:05.359Z,50.41
2018-09-28T11:36:05.351Z,50.51
2018-09-28T11:37:05.341Z,50.41
2018-09-28T11:38:05.326Z,49.60
2018-09-28T11:39:05.361Z,48.50
2018-09-28T11:40:05.309Z,49.21
2018-09-28T11:41:05.304Z,49.60
2018-09-28T11:42:05.312Z,50.61
2018-09-28T11:43:05.289Z,48.78
2018-09-28T11:44:05.282Z,48.70
2018-09-28T11:45:05.256Z,48.80
2018-09-28T11:46:05.256Z,49.51
2018-09-28T11:47:05.269Z,48.80
2018-09-28T11:48:05.219Z,49.51
2018-09-28T11:49:05.269Z,48.90
2018-09-28T11:50:05.214Z,49.10
2018-09-28T11:51:05.185Z,49.30
2018-09-28T11:52:05.205Z,50.41
2018-09-28T11:53:05.158Z,50.91
2018-09-28T11:54:05.154Z,50.18
2018-09-28T11:55:05.152Z,49.28
2018-09-28T11:56:05.135Z,48.98
2018-09-28T11:57:05.144Z,49.68
2018-09-28T11:58:05.108Z,49.88
2018-09-28T11:59:05.101Z,48.48
2018-09-28T12:00:05.101Z,48.78
2018-09-28T12:01:05.075Z,49.38
2018-09-28T12:02:05.087Z,49.28
2018-09-28T12:03:05.060Z,50.18
2018-09-28T12:04:05.062Z,50.59
2018-09-28T12:05:05.106Z,50.09
2018-09-28T12:06:05.023Z,48.38
2018-09-28T12:07:05.025Z,48.68
2018-09-28T12:08:04.996Z,48.88
2018-09-28T12:09:12.103Z,48.58
2018-09-28T12:10:04.972Z,49.08
2018-09-28T12:11:05.029Z,48.28
2018-09-28T12:12:04.952Z,48.68
2018-09-28T12:13:04.952Z,48.78
2018-09-28T12:14:04.973Z,49.08
2018-09-28T12:15:04.918Z,49.96
2018-09-28T12:16:04.906Z,48.55
2018-09-28T12:17:04.896Z,47.85
2018-09-28T12:18:04.885Z,48.46
2018-09-28T12:19:04.885Z,48.68
2018-09-28T12:20:05.879Z,48.38
2018-09-28T12:21:04.851Z,48.25
2018-09-28T12:22:04.840Z,48.35
2018-09-28T12:23:04.830Z,47.65
2018-09-28T12:24:04.814Z,47.27
2018-09-28T12:25:04.832Z,46.55
2018-09-28T12:26:04.796Z,47.45
2018-09-28T12:27:04.781Z,47.25
2018-09-28T12:28:04.773Z,46.65
2018-09-28T12:29:04.762Z,47.05
2018-09-28T12:30:04.772Z,46.15
2018-09-28T12:31:04.740Z,47.25
2018-09-28T12:32:04.753Z,48.46
2018-09-28T12:33:04.713Z,46.45
2018-09-28T12:34:04.705Z,47.65
2018-09-28T12:35:04.720Z,47.25
2018-09-28T12:36:04.681Z,47.38
2018-09-28T12:37:04.678Z,47.45
2018-09-28T12:38:04.736Z,46.75
2018-09-28T12:39:04.735Z,46.65
2018-09-28T12:40:04.719Z,47.25
2018-09-28T12:41:04.624Z,48.35
2018-09-28T12:42:04.614Z,47.96
2018-09-28T12:43:04.613Z,48.86
2018-09-28T12:44:04.595Z,47.25
2018-09-28T12:45:04.744Z,47.15
2018-09-28T12:46:04.581Z,46.95
2018-09-28T12:47:04.570Z,47.55
2018-09-28T12:48:04.548Z,46.95
2018-09-28T12:49:04.593Z,45.84
2018-09-28T12:50:04.527Z,45.95
2018-09-28T12:51:04.560Z,46.47
2018-09-28T12:52:04.518Z,47.65
2018-09-28T12:53:05.481Z,47.65
2018-09-28T12:54:04.515Z,46.55
2018-09-28T12:55:04.479Z,47.27
2018-09-28T12:56:04.462Z,47.27
2018-09-28T12:57:04.448Z,47.45
2018-09-28T12:58:04.441Z,46.77
2018-09-28T12:59:04.521Z,48.25
2018-09-28T13:00:04.418Z,48.35
2018-09-28T13:01:04.553Z,47.25
2018-09-28T13:02:04.394Z,46.85
2018-09-28T13:03:04.383Z,46.75
2018-09-28T13:04:04.398Z,47.27
2018-09-28T13:05:04.393Z,46.95
2018-09-28T13:06:04.352Z,45.95
2018-09-28T13:07:04.346Z,46.95
2018-09-28T13:08:04.365Z,46.65
2018-09-28T13:09:04.318Z,46.95
2018-09-28T13:10:04.329Z,45.75
2018-09-28T13:11:04.358Z,46.35
2018-09-28T13:12:04.285Z,46.85
2018-09-28T13:13:04.298Z,46.35
2018-09-28T13:14:04.264Z,46.65
2018-09-28T13:15:04.320Z,45.25
2018-09-28T13:16:04.239Z,47.17
2018-09-28T13:17:04.229Z,46.75
2018-09-28T13:18:04.257Z,46.65
2018-09-28T13:19:04.206Z,46.15
2018-09-28T13:20:04.203Z,45.34
2018-09-28T13:21:04.192Z,45.95
2018-09-28T13:22:04.184Z,45.65
2018-09-28T13:23:04.164Z,45.45
2018-09-28T13:24:04.191Z,45.14
2018-09-28T13:25:04.140Z,45.04
2018-09-28T13:26:04.129Z,44.54
2018-09-28T13:27:04.117Z,45.45
2018-09-28T13:28:04.106Z,44.44
2018-09-28T13:29:04.144Z,45.14
2018-09-28T13:30:04.097Z,45.37
2018-09-28T13:31:04.085Z,45.04
2018-09-28T13:32:04.062Z,44.95
2018-09-28T13:33:04.054Z,44.54
2018-09-28T13:34:04.074Z,44.54
2018-09-28T13:35:04.036Z,44.84
2018-09-28T13:36:04.021Z,44.24
2018-09-28T13:37:04.017Z,44.95
2018-09-28T13:38:04.002Z,44.24
2018-09-28T13:39:04.046Z,44.64
2018-09-28T13:40:03.976Z,44.74
2018-09-28T13:41:03.975Z,43.14
2018-09-28T13:42:03.970Z,45.54
2018-09-28T13:43:03.943Z,43.84
2018-09-28T13:44:03.947Z,44.54
2018-09-28T13:45:03.993Z,43.84
2018-09-28T13:46:03.980Z,44.34
2018-09-28T13:47:03.900Z,44.44
2018-09-28T13:48:03.890Z,44.64
2018-09-28T13:49:03.876Z,44.74
2018-09-28T13:50:03.892Z,44.54
2018-09-28T13:51:03.856Z,44.14
2018-09-28T13:52:03.880Z,44.74
2018-09-28T13:53:03.833Z,44.24
2018-09-28T13:54:03.824Z,44.24
2018-09-28T13:55:03.849Z,43.34
2018-09-28T13:56:03.804Z,44.84
2018-09-28T13:57:03.789Z,44.84
2018-09-28T13:58:03.782Z,45.47
2018-09-28T13:59:03.775Z,46.15
2018-09-28T14:00:03.762Z,44.74
2018-09-28T14:01:03.774Z,45.25
2018-09-28T14:02:03.734Z,45.25
2018-09-28T14:03:03.725Z,45.75
2018-09-28T14:04:03.718Z,44.95
2018-09-28T14:05:03.707Z,42.94
2018-09-28T14:06:03.715Z,44.54
2018-09-28T14:07:03.755Z,43.94
2018-09-28T14:08:03.675Z,44.84
2018-09-28T14:09:03.654Z,44.34
2018-09-28T14:10:03.656Z,45.04
2018-09-28T14:11:03.683Z,44.04
2018-09-28T14:12:03.622Z,44.95
2018-09-28T14:13:03.615Z,45.26
2018-09-28T14:14:03.606Z,45.14
2018-09-28T14:15:03.591Z,45.34
2018-09-28T14:16:03.632Z,45.14
2018-09-28T14:17:03.580Z,45.26
2018-09-28T14:18:03.569Z,45.84
2018-09-28T14:19:03.556Z,45.65
2018-09-28T14:20:03.540Z,45.84
2018-09-28T14:21:03.536Z,45.17
2018-09-28T14:22:03.543Z,45.57
2018-09-28T14:23:03.506Z,45.67
2018-09-28T14:24:03.493Z,45.67
2018-09-28T14:25:03.483Z,46.17
2018-09-28T14:26:03.475Z,45.97
2018-09-28T14:27:03.483Z,46.27
2018-09-28T14:28:03.555Z,46.87
2018-09-28T14:29:03.440Z,45.67
2018-09-28T14:30:03.428Z,45.67
2018-09-28T14:31:03.415Z,45.97
2018-09-28T14:32:03.435Z,45.97
2018-09-28T14:33:03.391Z,45.67
2018-09-28T14:34:03.388Z,45.67
2018-09-28T14:35:03.382Z,46.67
2018-09-28T14:36:03.365Z,46.67
2018-09-28T14:37:03.356Z,46.77
2018-09-28T14:38:03.361Z,46.97
2018-09-28T14:39:03.332Z,46.77
2018-09-28T14:40:03.314Z,46.77
2018-09-28T14:41:03.305Z,46.77
2018-09-28T14:42:03.416Z,46.87
2018-09-28T14:43:03.305Z,47.15
2018-09-28T14:44:03.302Z,46.75
2018-09-28T14:45:03.268Z,45.84
2018-09-28T14:46:03.255Z,46.15
2018-09-28T14:47:03.245Z,45.84
2018-09-28T14:48:03.242Z,45.65
2018-09-28T14:49:03.339Z,46.65
2018-09-28T14:50:03.212Z,46.04
2018-09-28T14:51:03.200Z,45.54
2018-09-28T14:52:03.187Z,46.75
2018-09-28T14:53:03.173Z,45.65
2018-09-28T14:54:03.214Z,45.65
2018-09-28T14:55:03.177Z,45.75
2018-09-28T14:56:03.141Z,44.54
2018-09-28T14:57:03.137Z,45.25
2018-09-28T14:58:03.124Z,46.15
2018-09-28T14:59:03.106Z,46.45
2018-09-28T15:00:03.165Z,45.84
2018-09-28T15:01:03.259Z,45.87
2018-09-28T15:02:03.080Z,44.26
2018-09-28T15:03:03.068Z,45.65
2018-09-28T15:04:03.061Z,44.54
2018-09-28T15:05:03.070Z,44.46
2018-09-28T15:06:03.040Z,43.04
2018-09-28T15:07:03.047Z,44.24
2018-09-28T15:08:03.011Z,45.14
2018-09-28T15:09:03.003Z,45.25
2018-09-28T15:10:03.009Z,44.87
2018-09-28T15:11:02.974Z,45.87
2018-09-28T15:12:02.966Z,45.34
2018-09-28T15:13:02.961Z,45.25
2018-09-28T15:14:02.940Z,44.36
2018-09-28T15:15:02.973Z,44.76
2018-09-28T15:16:02.927Z,44.34
2018-09-28T15:17:02.908Z,44.44
2018-09-28T15:18:02.904Z,44.56
2018-09-28T15:19:02.891Z,44.16
2018-09-28T15:20:02.881Z,43.86
2018-09-28T15:21:02.889Z,44.99
2018-09-28T15:22:02.857Z,45.49
2018-09-28T15:23:02.847Z,45.09
2018-09-28T15:24:02.904Z,44.56
2018-09-28T15:25:02.827Z,44.56
2018-09-28T15:26:02.845Z,43.98
2018-09-28T15:27:02.804Z,43.88
2018-09-28T15:28:02.794Z,43.58
2018-09-28T15:29:02.788Z,43.58
2018-09-28T15:30:02.810Z,43.38
2018-09-28T15:31:02.761Z,43.40
2018-09-28T15:32:02.778Z,43.30
2018-09-28T15:33:02.758Z,43.80
2018-09-28T15:34:02.724Z,45.23
2018-09-28T15:35:02.759Z,44.71
2018-09-28T15:36:02.702Z,44.32
2018-09-28T15:37:02.716Z,44.60
2018-09-28T15:38:02.678Z,45.43
2018-09-28T15:39:02.669Z,44.63
2018-09-28T15:40:02.657Z,45.33
2018-09-28T15:41:02.644Z,45.73
2018-09-28T15:42:02.658Z,46.23
2018-09-28T15:43:02.623Z,45.23
2018-09-28T15:44:02.619Z,46.66
2018-09-28T15:45:02.599Z,46.46
2018-09-28T15:46:02.591Z,46.26
2018-09-28T15:47:02.613Z,46.86
2018-09-28T15:48:02.569Z,46.86
2018-09-28T15:49:02.561Z,46.86
2018-09-28T15:50:02.547Z,47.36
2018-09-28T15:51:02.536Z,46.88
2018-09-28T15:52:02.520Z,47.19
2018-09-28T15:53:02.533Z,47.08
2018-09-28T15:54:02.504Z,47.59
2018-09-28T15:55:02.488Z,47.39
2018-09-28T15:56:02.479Z,47.28
2018-09-28T15:57:02.471Z,48.49
2018-09-28T15:58:02.486Z,47.79
2018-09-28T15:59:02.446Z,48.32
2018-09-28T16:00:02.433Z,48.61
2018-09-28T16:01:02.421Z,46.70
2018-09-28T16:02:02.425Z,48.72
2018-09-28T16:03:02.453Z,47.81
2018-09-28T16:04:02.410Z,48.84
2018-09-28T16:05:02.390Z,48.61
2018-09-28T16:06:02.370Z,49.12
2018-09-28T16:07:02.375Z,48.64
2018-09-28T16:08:02.355Z,49.24
2018-09-28T16:09:02.359Z,49.15
2018-09-28T16:10:02.336Z,49.65
2018-09-28T16:11:02.321Z,48.64
2018-09-28T16:12:02.313Z,48.94
2018-09-28T16:13:02.302Z,49.55
2018-09-28T16:14:02.316Z,49.47
2018-09-28T16:15:02.266Z,49.97
2018-09-28T16:16:02.256Z,50.37
2018-09-28T16:17:02.253Z,48.56
2018-09-28T16:18:02.233Z,49.57
2018-09-28T16:19:02.255Z,51.99
2018-09-28T16:20:02.211Z,51.89
2018-09-28T16:21:02.198Z,52.29
2018-09-28T16:22:02.190Z,52.92
2018-09-28T16:23:02.187Z,50.40
2018-09-28T16:24:02.201Z,50.70
2018-09-28T16:25:02.157Z,50.40
2018-09-28T16:26:02.158Z,50.90
2018-09-28T16:27:02.132Z,50.40
2018-09-28T16:28:02.118Z,50.40
2018-09-28T16:29:02.146Z,51.33
2018-09-28T16:30:02.104Z,50.93
2018-09-28T16:31:02.089Z,52.74
2018-09-28T16:32:02.092Z,53.96
2018-09-28T16:33:02.066Z,51.84
2018-09-28T16:34:02.051Z,52.04
2018-09-28T16:35:02.063Z,52.36
2018-09-28T16:36:02.050Z,51.66
2018-09-28T16:37:02.023Z,51.96
2018-09-28T16:38:02.016Z,53.88
2018-09-28T16:39:01.999Z,52.39
2018-09-28T16:40:02.017Z,51.78
2018-09-28T16:41:01.983Z,53.30
2018-09-28T16:42:01.966Z,52.29
2018-09-28T16:43:01.956Z,51.38
2018-09-28T16:44:01.948Z,51.61
2018-09-28T16:45:01.970Z,51.61
2018-09-28T16:46:01.938Z,52.01
2018-09-28T16:47:01.914Z,53.12
2018-09-28T16:48:08.972Z,52.21
2018-09-28T16:49:08.933Z,51.83
2018-09-28T16:50:09.256Z,52.11
2018-09-28T16:51:01.870Z,52.14
2018-09-28T16:52:08.909Z,52.54
2018-09-28T16:53:08.885Z,52.34
2018-09-28T16:54:08.879Z,51.23
2018-09-28T16:55:08.870Z,50.72
2018-09-28T16:56:08.931Z,50.42
2018-09-28T16:57:01.798Z,51.65
2018-09-28T16:58:01.787Z,50.62
2018-09-28T16:59:01.775Z,52.16
2018-09-28T17:00:08.815Z,50.84
2018-09-28T17:01:08.990Z,51.55
2018-09-28T17:02:01.741Z,52.97
2018-09-28T17:03:08.777Z,53.90
2018-09-28T17:04:08.767Z,52.39
2018-09-28T17:05:08.749Z,49.76
2018-09-28T17:06:01.697Z,49.78
2018-09-28T17:07:09.196Z,50.97
2018-09-28T17:08:08.722Z,51.37
2018-09-28T17:09:08.729Z,51.37
2018-09-28T17:10:01.659Z,49.88
2018-09-28T17:11:01.660Z,51.81
2018-09-28T17:12:01.686Z,52.21
2018-09-28T17:13:01.626Z,52.31
2018-09-28T17:14:01.614Z,51.70
2018-09-28T17:15:01.593Z,51.30
2018-09-28T17:16:01.580Z,51.62
2018-09-28T17:17:01.607Z,52.94
2018-09-28T17:18:01.562Z,53.55
2018-09-28T17:19:01.556Z,51.02
2018-09-28T17:20:01.538Z,52.84
2018-09-28T17:21:01.529Z,51.86
2018-09-28T17:22:01.564Z,52.64
2018-09-28T17:23:01.528Z,54.69
2018-09-28T17:24:01.494Z,54.99
2018-09-28T17:25:01.485Z,55.10
2018-09-28T17:26:01.469Z,55.30
2018-09-28T17:27:01.460Z,55.19
2018-09-28T17:28:01.468Z,55.32
2018-09-28T17:29:01.437Z,55.63
2018-09-28T17:30:01.430Z,55.93
2018-09-28T17:31:01.413Z,55.65
2018-09-28T17:32:01.421Z,56.57
2018-09-28T17:33:01.423Z,56.87
2018-09-28T17:34:01.380Z,57.20
2018-09-28T17:35:01.415Z,58.01
2018-09-28T17:36:01.363Z,57.60
2018-09-28T17:37:01.353Z,58.45
2018-09-28T17:38:01.366Z,59.05
2018-09-28T17:39:01.330Z,59.66
2018-09-28T17:40:01.320Z,58.78
2018-09-28T17:41:01.305Z,59.69
2018-09-28T17:42:01.298Z,59.99
2018-09-28T17:43:02.150Z,59.62
2018-09-28T17:44:01.295Z,59.21
2018-09-28T17:45:01.261Z,60.33
2018-09-28T17:46:01.247Z,60.13
2018-09-28T17:47:01.238Z,61.04
2018-09-28T17:48:01.229Z,61.24
2018-09-28T17:49:01.233Z,60.76
2018-09-28T17:50:01.203Z,60.97
2018-09-28T17:51:01.195Z,61.27
2018-09-28T17:52:01.181Z,61.17
2018-09-28T17:53:01.171Z,61.68
2018-09-28T17:54:01.317Z,61.98
2018-09-28T17:55:01.154Z,62.18
2018-09-28T17:56:01.137Z,62.93
2018-09-28T17:57:01.123Z,62.62
2018-09-28T17:58:01.114Z,63.23
2018-09-28T17:59:01.140Z,62.82
2018-09-28T18:00:01.095Z,63.54
2018-09-28T18:01:01.088Z,64.38
2018-09-28T18:02:01.070Z,63.77
2018-09-28T18:03:01.066Z,63.57
2018-09-28T18:04:01.076Z,64.48
2018-09-28T18:05:01.063Z,65.30
2018-09-28T18:06:01.026Z,64.72
2018-09-28T18:07:01.016Z,65.33
2018-09-28T18:08:01.003Z,65.33
2018-09-28T18:09:00.997Z,65.83
2018-09-28T18:10:01.007Z,65.94
2018-09-28T18:11:00.966Z,65.77
2018-09-28T18:12:00.958Z,65.86
2018-09-28T18:13:00.990Z,65.97
2018-09-28T18:14:00.955Z,65.86
2018-09-28T18:15:00.956Z,67.39
2018-09-28T18:16:00.909Z,68.10
2018-09-28T18:17:00.899Z,67.49
2018-09-28T18:18:00.897Z,68.24
2018-09-28T18:19:00.876Z,69.02
2018-09-28T18:20:00.889Z,68.65
2018-09-28T18:21:00.875Z,69.15
2018-09-28T18:22:00.841Z,70.17
2018-09-28T18:23:00.835Z,69.87
2018-09-28T18:24:00.820Z,69.87
2018-09-28T18:25:00.809Z,70.21
2018-09-28T18:26:00.898Z,70.31
2018-09-28T18:27:00.831Z,71.02
2018-09-28T18:28:00.821Z,70.85
2018-09-28T18:29:00.804Z,71.56
2018-09-28T18:30:00.759Z,71.77
2018-09-28T18:31:00.780Z,71.77
2018-09-28T18:32:00.735Z,71.60
2018-09-28T18:33:00.736Z,70.95
2018-09-28T18:34:00.714Z,71.60
2018-09-28T18:35:00.746Z,71.91
2018-09-28T18:36:00.723Z,72.21
2018-09-28T18:37:00.679Z,72.31
2018-09-28T18:38:00.666Z,72.41
2018-09-28T18:39:00.658Z,72.92
2018-09-28T18:40:00.646Z,73.13
2018-09-28T18:41:00.635Z,73.43
2018-09-28T18:42:00.696Z,73.16
2018-09-28T18:43:00.608Z,73.27
2018-09-28T18:44:00.600Z,73.67
2018-09-28T18:45:00.592Z,73.36
2018-09-28T18:46:00.582Z,74.18
2018-09-28T18:47:00.591Z,74.11
2018-09-28T18:48:00.559Z,74.11
2018-09-28T18:49:00.546Z,74.22
2018-09-28T18:50:00.532Z,73.74
2018-09-28T18:51:00.525Z,74.32
2018-09-28T18:52:00.537Z,74.22
2018-09-28T18:53:00.546Z,74.76
2018-09-28T18:54:00.492Z,75.17
2018-09-28T18:55:00.475Z,75.07
2018-09-28T18:56:00.466Z,75.58
2018-09-28T18:57:00.482Z,75.58
2018-09-28T18:58:00.445Z,75.48
2018-09-28T18:59:00.436Z,75.48
2018-09-28T19:00:00.425Z,74.97
2018-09-28T19:01:00.409Z,75.17
2018-09-28T19:02:00.400Z,75.31
2018-09-28T19:03:00.409Z,74.69
2018-09-28T19:04:00.375Z,75.37
2018-09-28T19:05:00.366Z,75.82
2018-09-28T19:06:00.429Z,75.82
2018-09-28T19:07:00.345Z,75.37
2018-09-28T19:08:00.358Z,75.92
2018-09-28T19:09:00.317Z,76.33
2018-09-28T19:10:00.308Z,76.12
2018-09-28T19:11:00.305Z,76.43
2018-09-28T19:12:00.284Z,76.84
2018-09-28T19:13:00.368Z,77.56
2018-09-28T19:14:00.263Z,76.78
2018-09-28T19:15:00.250Z,77.49
2018-09-28T19:16:00.245Z,77.59
2018-09-28T19:17:00.242Z,77.59
2018-09-28T19:18:00.219Z,77.39
2018-09-28T19:19:00.236Z,78.11
2018-09-28T19:20:00.205Z,78.11
2018-09-28T19:21:00.183Z,77.70
2018-09-28T19:22:00.172Z,77.80
2018-09-28T19:23:00.162Z,74.22
2018-09-28T19:24:00.173Z,73.20
2018-09-28T19:25:00.138Z,74.49
2018-09-28T19:26:00.129Z,71.53
2018-09-28T19:27:00.116Z,71.83
2018-09-28T19:28:00.111Z,73.06
2018-09-28T19:29:00.126Z,70.00
2018-09-28T19:30:00.083Z,67.79
2018-09-28T19:31:00.074Z,68.09
2018-09-28T19:32:00.067Z,66.74
2018-09-28T19:33:00.060Z,66.60
2018-09-28T19:34:00.044Z,68.23
2018-09-28T19:35:00.048Z,66.09
2018-09-28T19:36:00.016Z,65.68
2018-09-28T19:37:00.005Z,66.09
2018-09-28T19:37:59.997Z,66.27
2018-09-28T19:38:59.985Z,65.75
2018-09-28T19:39:59.996Z,65.95
2018-09-28T19:40:59.970Z,65.95
2018-09-28T19:41:59.948Z,66.06
2018-09-28T19:42:59.938Z,66.27
2018-09-28T19:43:59.937Z,66.57
2018-09-28T19:44:59.937Z,66.77
2018-09-28T19:45:59.904Z,65.75
2018-09-28T19:46:59.904Z,66.06
2018-09-28T19:47:59.885Z,66.54
2018-09-28T19:48:59.919Z,66.85
2018-09-28T19:49:59.892Z,66.13
2018-09-28T19:50:59.853Z,66.94
2018-09-28T19:51:59.839Z,67.22
2018-09-28T19:52:59.836Z,66.64
2018-09-28T19:53:59.819Z,66.33
2018-09-28T19:54:59.836Z,66.82
2018-09-28T19:55:59.814Z,67.22
2018-09-28T19:56:59.785Z,67.63
2018-09-28T19:57:59.877Z,67.73
2018-09-28T19:58:59.763Z,67.73
2018-09-28T19:59:59.752Z,68.34
2018-09-28T20:00:59.763Z,68.07
2018-09-28T20:01:59.732Z,68.17
2018-09-28T20:02:59.718Z,68.68
2018-09-28T20:03:59.717Z,68.88
2018-09-28T20:04:59.696Z,68.98
2018-09-28T20:05:59.724Z,68.78
2018-09-28T20:06:59.678Z,68.68
2018-09-28T20:07:59.663Z,69.29
2018-09-28T20:08:59.649Z,68.78
2018-09-28T20:09:59.644Z,68.88
2018-09-28T20:10:59.652Z,68.27
2018-09-28T20:11:59.618Z,69.39
2018-09-28T20:12:59.612Z,68.98
2018-09-28T20:13:59.597Z,68.57
2018-09-28T20:14:59.585Z,68.54
2018-09-28T20:15:59.597Z,68.68
2018-09-28T20:16:59.575Z,69.09
2018-09-28T20:17:59.552Z,69.19
2018-09-28T20:18:59.538Z,69.49
2018-09-28T20:19:59.529Z,69.49
2018-09-28T20:20:59.551Z,69.80
2018-09-28T20:21:59.508Z,69.80
2018-09-28T20:22:59.514Z,69.73
2018-09-28T20:23:59.505Z,70.14
2018-09-28T20:24:59.471Z,70.14
2018-09-28T20:25:59.461Z,70.65
2018-09-28T20:26:59.472Z,70.95
2018-09-28T20:27:59.444Z,70.75
2018-09-28T20:28:59.436Z,70.72
2018-09-28T20:29:59.418Z,70.85
2018-09-28T20:30:59.412Z,71.26
2018-09-28T20:31:59.422Z,71.36
2018-09-28T20:32:59.381Z,71.46
2018-09-28T20:33:59.375Z,71.91
2018-09-28T20:34:59.364Z,71.80
2018-09-28T20:35:59.357Z,72.38
2018-09-28T20:36:59.360Z,71.87
2018-09-28T20:37:59.330Z,72.21
2018-09-28T20:38:59.321Z,72.11
2018-09-28T20:39:59.305Z,72.41
2018-09-28T20:40:59.296Z,72.21
2018-09-28T20:41:59.313Z,71.80
2018-09-28T20:42:59.272Z,72.17
2018-09-28T20:43:59.263Z,71.87
2018-09-28T20:44:59.259Z,72.00
2018-09-28T20:45:59.238Z,71.67
2018-09-28T20:46:59.232Z,71.70
2018-09-28T20:47:59.235Z,71.67
2018-09-28T20:48:59.254Z,71.70
2018-09-28T20:49:59.193Z,71.56
2018-09-28T20:50:59.188Z,71.80
2018-09-28T20:51:59.174Z,71.56
2018-09-28T20:52:59.189Z,71.46
2018-09-28T20:53:59.156Z,71.60
2018-09-28T20:54:59.141Z,71.56
2018-09-28T20:55:59.126Z,71.50
2018-09-28T20:56:59.117Z,71.60
2018-09-28T20:57:59.128Z,71.46
2018-09-28T20:58:59.093Z,71.70
2018-09-28T20:59:59.083Z,71.29
2018-09-28T21:00:59.141Z,71.19
2018-09-28T21:01:59.061Z,70.98
2018-09-28T21:02:59.081Z,71.19
2018-09-28T21:03:59.073Z,71.39
2018-09-28T21:04:59.025Z,71.70
2018-09-28T21:05:59.016Z,71.60
2018-09-28T21:06:59.008Z,71.39
2018-09-28T21:07:58.992Z,71.60
2018-09-28T21:08:59.009Z,71.60
2018-09-28T21:09:58.978Z,71.50
2018-09-28T21:10:58.963Z,71.50
2018-09-28T21:11:58.950Z,71.60
2018-09-28T21:12:58.935Z,71.60
2018-09-28T21:13:58.952Z,71.60
2018-09-28T21:14:58.915Z,71.29
2018-09-28T21:15:58.902Z,71.50
2018-09-28T21:16:58.893Z,71.50
2018-09-28T21:17:58.882Z,71.70
2018-09-28T21:18:58.893Z,71.91
2018-09-28T21:19:58.860Z,71.43
2018-09-28T21:20:58.857Z,71.63
2018-09-28T21:21:58.836Z,71.91
2018-09-28T21:22:58.825Z,72.14
2018-09-28T21:23:58.848Z,72.24
2018-09-28T21:24:58.802Z,72.24
2018-09-28T21:25:58.795Z,72.14
2018-09-28T21:26:58.787Z,72.65
2018-09-28T21:27:58.781Z,72.24
2018-09-28T21:28:58.856Z,72.17
2018-09-28T21:29:58.781Z,72.14
2018-09-28T21:30:58.748Z,72.17
2018-09-28T21:31:58.726Z,72.58
2018-09-28T21:32:58.718Z,72.69
2018-09-28T21:33:58.733Z,72.69
2018-09-28T21:34:58.724Z,72.17
2018-09-28T21:35:58.694Z,72.69
2018-09-28T21:36:58.683Z,72.48
2018-09-28T21:37:58.659Z,72.62
2018-09-28T21:38:58.679Z,72.52
2018-09-28T21:39:58.666Z,73.13
2018-09-28T21:40:58.625Z,72.72
2018-09-28T21:41:58.621Z,73.03
2018-09-28T21:42:58.613Z,73.03
2018-09-28T21:43:58.601Z,73.13
2018-09-28T21:44:58.621Z,73.23
2018-09-28T21:45:58.598Z,73.84
2018-09-28T21:46:58.577Z,73.88
2018-09-28T21:47:58.552Z,73.84
2018-09-28T21:48:58.555Z,73.88
2018-09-28T21:49:58.526Z,73.77
2018-09-28T21:50:58.577Z,73.68
2018-09-28T21:51:58.514Z,73.36
2018-09-28T21:52:58.497Z,73.57
2018-09-28T21:53:58.489Z,73.36
2018-09-28T21:54:58.471Z,73.27
2018-09-28T21:55:58.515Z,72.96
2018-09-28T21:56:58.455Z,73.98
2018-09-28T21:57:58.435Z,73.77
2018-09-28T21:58:58.443Z,73.81
2018-09-28T21:59:58.425Z,74.59
2018-09-28T22:00:58.440Z,74.63
2018-09-28T22:01:58.392Z,74.43
2018-09-28T22:02:58.401Z,74.73
2018-09-28T22:03:58.368Z,75.34
2018-09-28T22:04:58.360Z,75.24
2018-09-28T22:05:58.354Z,74.52
2018-09-28T22:06:58.335Z,75.45
2018-09-28T22:07:58.353Z,75.24
2018-09-28T22:08:58.320Z,74.93
2018-09-28T22:09:59.221Z,75.24
2018-09-28T22:10:58.292Z,75.34
2018-09-28T22:11:58.285Z,75.45
2018-09-28T22:12:58.296Z,75.27
2018-09-28T22:13:58.282Z,75.45
2018-09-28T22:14:58.259Z,75.14
2018-09-28T22:15:58.244Z,74.56
2018-09-28T22:16:58.228Z,74.97
2018-09-28T22:17:58.291Z,75.14
2018-09-28T22:18:58.201Z,75.68
2018-09-28T22:19:58.193Z,75.59
2018-09-28T22:20:58.189Z,75.48
2018-09-28T22:21:58.174Z,75.89
2018-09-28T22:22:58.185Z,75.38
2018-09-28T22:23:58.156Z,75.68
2018-09-28T22:24:58.149Z,75.89
2018-09-28T22:25:58.126Z,75.79
2018-09-28T22:26:58.121Z,76.20
2018-09-28T22:27:58.126Z,76.40
2018-09-28T22:28:58.094Z,76.20
2018-09-28T22:29:58.096Z,76.13
2018-09-28T22:30:58.080Z,76.23
2018-09-28T22:31:58.085Z,76.03
2018-09-28T22:32:58.082Z,76.09
2018-09-28T22:33:58.046Z,75.99
2018-09-28T22:34:58.025Z,76.30
2018-09-28T22:35:58.021Z,76.30
2018-09-28T22:36:58.000Z,76.23